Time;durP1;ratioP1;P1;durP2;ratioP2;P2;SDS_P1;SDS_P2;PMS_P1;PMS_P2;Temp;Humidity;BMP_temperature;BMP_pressure;BME280_temperature;BME280_humidity;BME280_pressure;Samples;Min_cycle;Max_cycle;Signal;HPM_P1;HPM_P2
2021/11/04 00:02:11;;;;;;;;;;;25.20;41.70;;;;;;5073909;28;20218;-77
2021/11/04 00:04:39;;;;;;;;;;;25.20;41.70;;;;;;5074984;28;19963;-82
2021/11/04 00:07:07;;;;;;;;;;;25.20;41.80;;;;;;5090442;28;19916;-79
2021/11/04 00:09:32;;;;;;;;;;;25.20;41.80;;;;;;5107182;28;19958;-79
2021/11/04 00:11:58;;;;;;;;;;;25.20;41.90;;;;;;5107743;28;19908;-78
2021/11/04 00:14:23;;;;;;;;;;;25.20;42.00;;;;;;5074329;28;19916;-79
2021/11/04 00:16:49;;;;;;;;;;;25.10;42.00;;;;;;5107424;28;19956;-79
2021/11/04 00:19:17;;;;;;;;;;;25.10;42.00;;;;;;5107390;28;20007;-79
2021/11/04 00:21:48;;;;;;;;;;;25.10;42.00;;;;;;5090278;28;19940;-80
2021/11/04 00:24:16;;;;;;;;;;;25.10;42.10;;;;;;5090391;28;20333;-80
2021/11/04 00:26:41;;;;;;;;;;;25.10;42.20;;;;;;5090510;28;19951;-78
2021/11/04 00:29:06;;;;;;;;;;;25.10;42.20;;;;;;5090689;28;19920;-79
2021/11/04 00:31:32;;;;;;;;;;;25.10;42.20;;;;;;5107473;28;19963;-80
2021/11/04 00:34:00;;;;;;;;;;;25.10;42.30;;;;;;5090610;28;19912;-81
2021/11/04 00:36:25;;;;;;;;;;;25.10;42.40;;;;;;5073633;28;20031;-81
2021/11/04 00:38:51;;;;;;;;;;;25.00;42.30;;;;;;5107129;28;20011;-81
2021/11/04 00:41:19;;;;;;;;;;;25.10;42.40;;;;;;5090347;28;19908;-80
2021/11/04 00:43:47;;;;;;;;;;;25.00;42.40;;;;;;5073508;28;20318;-79
2021/11/04 00:46:15;;;;;;;;;;;25.00;42.40;;;;;;5075748;28;19908;-79
2021/11/04 00:48:40;;;;;;;;;;;25.00;42.50;;;;;;5110645;28;20225;-80
2021/11/04 00:51:06;;;;;;;;;;;25.00;42.50;;;;;;5110932;28;20003;-80
2021/11/04 00:53:31;;;;;;;;;;;25.00;42.50;;;;;;5110897;28;19999;-77
2021/11/04 00:56:01;;;;;;;;;;;25.00;42.60;;;;;;5110958;28;20215;-78
2021/11/04 00:58:26;;;;;;;;;;;25.00;42.60;;;;;;5093571;28;19923;-77
2021/11/04 01:00:52;;;;;;;;;;;24.90;42.60;;;;;;5110826;28;19908;-78
2021/11/04 01:03:21;;;;;;;;;;;24.90;42.60;;;;;;5077263;28;19919;-78
2021/11/04 01:05:47;;;;;;;;;;;24.90;42.60;;;;;;5093464;28;19909;-77
2021/11/04 01:08:15;;;;;;;;;;;25.00;42.70;;;;;;5093590;28;20249;-80
2021/11/04 01:10:41;;;;;;;;;;;24.90;42.70;;;;;;5076558;28;19987;-78
2021/11/04 01:13:09;;;;;;;;;;;24.90;42.70;;;;;;5093545;28;19914;-78
2021/11/04 01:15:34;;;;;;;;;;;24.90;42.80;;;;;;5093804;28;19908;-78
2021/11/04 01:18:00;;;;;;;;;;;24.80;42.70;;;;;;5093243;28;19912;-77
2021/11/04 01:20:28;;;;;;;;;;;24.80;42.80;;;;;;5093548;28;19939;-79
2021/11/04 01:22:55;;;;;;;;;;;24.90;42.90;;;;;;5077377;28;20259;-78
2021/11/04 01:25:21;;;;;;;;;;;24.80;43.50;;;;;;5076356;28;19958;-79
2021/11/04 01:27:46;;;;;;;;;;;24.80;42.90;;;;;;5076216;28;19908;-78
2021/11/04 01:30:12;;;;;;;;;;;24.80;42.90;;;;;;5093215;28;19988;-77
2021/11/04 01:32:40;;;;;;;;;;;24.80;42.90;;;;;;5077093;28;19908;-77
2021/11/04 01:35:06;;;;;;;;;;;24.80;43.00;;;;;;5092958;28;19919;-79
2021/11/04 01:37:31;;;;;;;;;;;24.80;43.60;;;;;;5076315;28;19912;-79
2021/11/04 01:39:57;;;;;;;;;;;24.80;43.10;;;;;;5109946;28;19943;-78
2021/11/04 01:42:22;;;;;;;;;;;24.80;43.00;;;;;;5110129;28;19917;-77
2021/11/04 01:44:50;;;;;;;;;;;24.80;43.10;;;;;;5093031;28;19908;-77
2021/11/04 01:47:18;;;;;;;;;;;24.80;43.10;;;;;;5059316;28;19912;-79
2021/11/04 01:49:44;;;;;;;;;;;24.80;43.20;;;;;;5092846;28;19908;-80
2021/11/04 01:52:12;;;;;;;;;;;24.80;43.10;;;;;;5092649;28;20266;-77
2021/11/04 01:54:37;;;;;;;;;;;24.70;43.10;;;;;;5092535;28;20286;-78
2021/11/04 01:57:05;;;;;;;;;;;24.70;43.10;;;;;;5092469;28;20443;-79
2021/11/04 01:59:31;;;;;;;;;;;24.70;43.10;;;;;;5092268;28;19999;-77
2021/11/04 02:02:06;;;;;;;;;;;24.70;43.20;;;;;;5092485;28;20078;-76
2021/11/04 02:04:40;;;;;;;;;;;24.70;43.20;;;;;;5092491;28;19909;-78
2021/11/04 02:07:13;;;;;;;;;;;24.70;43.20;;;;;;5092360;28;19912;-78
2021/11/04 02:09:44;;;;;;;;;;;24.70;43.20;;;;;;5091867;28;19909;-78
2021/11/04 02:12:20;;;;;;;;;;;24.70;43.20;;;;;;5091964;28;19908;-78
2021/11/04 02:14:48;;;;;;;;;;;24.70;43.20;;;;;;5092266;28;20062;-78
2021/11/04 02:17:15;;;;;;;;;;;24.70;43.30;;;;;;5075120;28;19909;-77
2021/11/04 02:19:47;;;;;;;;;;;24.70;43.30;;;;;;5076170;28;19908;-79
2021/11/04 02:22:18;;;;;;;;;;;24.70;43.30;;;;;;5092279;28;19908;-77
2021/11/04 02:25:03;;;;;;;;;;;24.70;43.30;;;;;;5076144;28;19935;-78
2021/11/04 02:27:28;;;;;;;;;;;24.70;43.30;;;;;;5076006;28;19908;-78
2021/11/04 02:29:56;;;;;;;;;;;24.70;43.30;;;;;;5092232;28;19920;-79
2021/11/04 02:32:21;;;;;;;;;;;24.70;43.30;;;;;;5091674;28;19909;-79
2021/11/04 02:34:50;;;;;;;;;;;24.70;43.30;;;;;;5091878;28;19966;-80
2021/11/04 02:37:18;;;;;;;;;;;24.70;43.30;;;;;;5074879;28;20014;-81
2021/11/04 02:39:44;;;;;;;;;;;24.70;43.30;;;;;;5074713;28;19920;-78
2021/11/04 02:42:12;;;;;;;;;;;24.60;43.30;;;;;;5108827;28;19908;-79
2021/11/04 02:44:40;;;;;;;;;;;24.60;43.30;;;;;;5108230;28;20337;-78
2021/11/04 02:47:06;;;;;;;;;;;24.70;43.30;;;;;;5108397;28;19908;-78
2021/11/04 02:49:34;;;;;;;;;;;24.60;43.30;;;;;;5075575;28;19920;-79
2021/11/04 02:52:00;;;;;;;;;;;24.70;43.40;;;;;;5091530;28;19971;-78
2021/11/04 02:54:27;;;;;;;;;;;24.60;43.30;;;;;;5091578;28;19916;-79
2021/11/04 02:56:53;;;;;;;;;;;24.60;43.30;;;;;;5091501;28;20333;-80
2021/11/04 02:59:21;;;;;;;;;;;24.60;43.40;;;;;;5091274;28;19962;-78
2021/11/04 03:01:47;;;;;;;;;;;24.60;43.40;;;;;;5091531;28;19920;-76
2021/11/04 03:04:18;;;;;;;;;;;24.60;43.40;;;;;;5091519;28;19908;-78
2021/11/04 03:06:46;;;;;;;;;;;24.60;43.40;;;;;;5091441;28;19947;-78
2021/11/04 03:09:12;;;;;;;;;;;24.60;43.40;;;;;;5090353;28;19909;-78
2021/11/04 03:11:38;;;;;;;;;;;24.60;43.40;;;;;;5091179;28;19908;-77
2021/11/04 03:14:05;;;;;;;;;;;24.60;43.40;;;;;;5091204;28;19970;-78
2021/11/04 03:16:37;;;;;;;;;;;24.60;43.40;;;;;;5075080;28;19908;-77
2021/11/04 03:19:03;;;;;;;;;;;24.60;43.40;;;;;;5090958;28;19973;-80
2021/11/04 03:21:31;;;;;;;;;;;24.60;43.40;;;;;;5108099;28;19909;-78
2021/11/04 03:24:05;;;;;;;;;;;24.60;43.50;;;;;;5091035;28;19967;-78
2021/11/04 03:26:33;;;;;;;;;;;24.60;43.40;;;;;;5090587;28;20348;-79
2021/11/04 03:29:01;;;;;;;;;;;24.60;43.50;;;;;;5075147;28;19908;-77
2021/11/04 03:31:26;;;;;;;;;;;24.50;43.40;;;;;;5090818;28;19975;-78
2021/11/04 03:33:52;;;;;;;;;;;24.50;43.50;;;;;;5107766;28;20303;-77
2021/11/04 03:36:21;;;;;;;;;;;24.50;43.50;;;;;;5075090;28;20011;-77
2021/11/04 03:38:47;;;;;;;;;;;24.50;43.50;;;;;;5090456;28;19932;-80
2021/11/04 03:41:13;;;;;;;;;;;24.50;43.50;;;;;;5074466;28;19908;-76
2021/11/04 03:43:40;;;;;;;;;;;24.50;43.50;;;;;;5089836;28;21741;-78
2021/11/04 03:46:06;;;;;;;;;;;24.50;43.50;;;;;;5090865;28;19966;-78
2021/11/04 03:48:37;;;;;;;;;;;24.50;43.50;;;;;;5090791;28;19927;-77
2021/11/04 03:51:02;;;;;;;;;;;24.50;43.50;;;;;;5073518;28;19908;-78
2021/11/04 03:53:28;;;;;;;;;;;24.60;43.60;;;;;;5090815;28;20004;-78
2021/11/04 03:55:53;;;;;;;;;;;24.50;43.60;;;;;;5090616;28;20030;-78
2021/11/04 03:58:19;;;;;;;;;;;24.50;43.70;;;;;;5107661;28;20337;-77
2021/11/04 04:00:47;;;;;;;;;;;24.50;43.60;;;;;;5090641;28;19991;-78
2021/11/04 04:03:12;;;;;;;;;;;24.50;43.60;;;;;;5074811;28;19908;-78
2021/11/04 04:05:38;;;;;;;;;;;24.50;43.60;;;;;;5074240;28;19920;-78
2021/11/04 04:08:04;;;;;;;;;;;24.50;43.60;;;;;;5107592;28;19920;-76
2021/11/04 04:10:31;;;;;;;;;;;24.50;43.60;;;;;;5090688;28;19920;-79
2021/11/04 04:12:57;;;;;;;;;;;24.50;43.60;;;;;;5090595;28;19951;-79
2021/11/04 04:15:25;;;;;;;;;;;24.50;43.60;;;;;;5090446;28;20021;-80
2021/11/04 04:17:53;;;;;;;;;;;24.50;43.60;;;;;;5073647;28;19913;-79
2021/11/04 04:20:20;;;;;;;;;;;24.50;43.60;;;;;;5108615;28;19912;-79
2021/11/04 04:22:45;;;;;;;;;;;24.50;43.60;;;;;;5094299;28;19928;-79
2021/11/04 04:25:16;;;;;;;;;;;24.50;43.60;;;;;;5094469;28;19909;-78
2021/11/04 04:27:41;;;;;;;;;;;24.50;43.70;;;;;;5093819;28;19908;-77
2021/11/04 04:30:09;;;;;;;;;;;24.40;43.60;;;;;;5111229;28;19919;-79
2021/11/04 04:32:34;;;;;;;;;;;24.50;43.70;;;;;;5111081;28;19916;-79
2021/11/04 04:35:00;;;;;;;;;;;24.40;43.60;;;;;;5094407;28;19966;-77
2021/11/04 04:37:25;;;;;;;;;;;24.40;43.70;;;;;;5094194;28;20311;-80
2021/11/04 04:39:53;;;;;;;;;;;24.40;44.20;;;;;;5078253;28;20241;-77
2021/11/04 04:42:19;;;;;;;;;;;24.40;43.70;;;;;;5110557;28;19912;-79
2021/11/04 04:44:44;;;;;;;;;;;24.40;43.60;;;;;;5077051;28;19919;-78
2021/11/04 04:47:10;;;;;;;;;;;24.50;43.70;;;;;;5094043;28;19965;-79
2021/11/04 04:49:35;;;;;;;;;;;24.40;43.70;;;;;;5093820;28;19920;-78
2021/11/04 04:52:01;;;;;;;;;;;24.40;43.70;;;;;;5094036;28;19909;-76
2021/11/04 04:54:29;;;;;;;;;;;24.40;43.70;;;;;;5094015;28;19912;-80
2021/11/04 04:56:55;;;;;;;;;;;24.40;43.70;;;;;;5093406;28;20069;-78
2021/11/04 04:59:23;;;;;;;;;;;24.40;43.80;;;;;;5111051;28;20424;-78
2021/11/04 05:01:48;;;;;;;;;;;24.40;43.80;;;;;;5076930;28;19920;-79
2021/11/04 05:04:14;;;;;;;;;;;24.40;43.80;;;;;;5093615;28;19909;-78
2021/11/04 05:06:42;;;;;;;;;;;24.30;43.70;;;;;;5110800;28;19915;-78
2021/11/04 05:09:08;;;;;;;;;;;24.40;43.80;;;;;;5093787;28;19958;-80
2021/11/04 05:11:33;;;;;;;;;;;24.40;43.80;;;;;;5110441;28;19916;-79
2021/11/04 05:13:59;;;;;;;;;;;24.40;43.80;;;;;;5110501;28;19909;-79
2021/11/04 05:16:27;;;;;;;;;;;24.30;43.80;;;;;;5093574;28;19916;-78
2021/11/04 05:18:54;;;;;;;;;;;24.40;43.90;;;;;;5077527;28;19974;-79
2021/11/04 05:21:20;;;;;;;;;;;24.30;43.80;;;;;;5093152;28;19908;-78
2021/11/04 05:23:48;;;;;;;;;;;24.40;43.80;;;;;;5093482;28;20355;-80
2021/11/04 05:26:13;;;;;;;;;;;24.30;43.80;;;;;;5092958;28;19919;-81
2021/11/04 05:28:39;;;;;;;;;;;24.30;43.80;;;;;;5110563;28;19908;-79
2021/11/04 05:31:05;;;;;;;;;;;24.30;43.90;;;;;;5076981;28;19908;-76
2021/11/04 05:33:30;;;;;;;;;;;24.40;43.90;;;;;;5109477;28;19908;-78
2021/11/04 05:35:56;;;;;;;;;;;24.30;43.80;;;;;;5109898;28;19970;-78
2021/11/04 05:38:23;;;;;;;;;;;24.30;43.80;;;;;;5092898;28;20061;-77
2021/11/04 05:40:54;;;;;;;;;;;24.30;43.90;;;;;;5092984;28;19916;-78
2021/11/04 05:43:19;;;;;;;;;;;24.30;43.90;;;;;;5093257;28;19908;-79
2021/11/04 05:45:47;;;;;;;;;;;24.30;43.90;;;;;;5093377;28;19934;-79
2021/11/04 05:48:15;;;;;;;;;;;24.30;43.90;;;;;;5092982;28;19908;-78
2021/11/04 05:50:41;;;;;;;;;;;24.30;43.90;;;;;;5076229;28;19920;-77
2021/11/04 05:53:06;;;;;;;;;;;24.30;43.90;;;;;;5109995;28;20400;-79
2021/11/04 05:55:32;;;;;;;;;;;24.30;43.90;;;;;;5093225;28;20272;-78
2021/11/04 05:57:58;;;;;;;;;;;24.30;43.90;;;;;;5092791;28;20404;-77
2021/11/04 06:00:23;;;;;;;;;;;24.30;43.90;;;;;;5092679;28;19916;-78
2021/11/04 06:02:49;;;;;;;;;;;24.30;44.00;;;;;;5092373;28;19935;-77
2021/11/04 06:05:14;;;;;;;;;;;24.30;43.90;;;;;;5076468;28;19955;-77
2021/11/04 06:07:42;;;;;;;;;;;24.30;43.90;;;;;;5109804;28;19936;-79
2021/11/04 06:10:10;;;;;;;;;;;24.30;43.90;;;;;;5092305;28;20349;-77
2021/11/04 06:12:41;;;;;;;;;;;24.30;43.90;;;;;;5075582;28;20011;-79
2021/11/04 06:15:07;;;;;;;;;;;24.30;43.90;;;;;;5092407;28;19942;-79
2021/11/04 06:17:32;;;;;;;;;;;24.30;44.00;;;;;;5076887;28;19908;-78
2021/11/04 06:19:58;;;;;;;;;;;24.30;44.00;;;;;;5092657;28;20261;-78
2021/11/04 06:22:26;;;;;;;;;;;24.30;44.00;;;;;;5076428;28;19908;-77
2021/11/04 06:24:51;;;;;;;;;;;24.20;43.90;;;;;;5091753;28;19915;-80
2021/11/04 06:27:17;;;;;;;;;;;24.20;44.00;;;;;;5075931;28;19909;-78
2021/11/04 06:29:42;;;;;;;;;;;24.30;44.00;;;;;;5092049;28;19936;-79
2021/11/04 06:32:08;;;;;;;;;;;24.20;44.00;;;;;;5092032;28;19995;-77
2021/11/04 06:34:33;;;;;;;;;;;24.20;44.00;;;;;;5091891;28;19919;-80
2021/11/04 06:36:59;;;;;;;;;;;24.20;44.00;;;;;;5108950;28;19913;-80
2021/11/04 06:39:24;;;;;;;;;;;23.30;36.70;;;;;;5075648;28;20027;-82
2021/11/04 06:41:51;;;;;;;;;;;21.60;35.20;;;;;;5092143;28;19920;-79
2021/11/04 06:44:22;;;;;;;;;;;20.80;35.20;;;;;;5107840;28;19908;-78
2021/11/04 06:46:48;;;;;;;;;;;19.80;36.20;;;;;;5074448;28;19908;-78
2021/11/04 06:49:17;;;;;;;;;;;19.80;37.70;;;;;;5074907;28;20249;-79
2021/11/04 06:51:42;;;;;;;;;;;20.40;38.20;;;;;;5091923;28;19962;-79
2021/11/04 06:54:11;;;;;;;;;;;21.20;38.80;;;;;;5108599;28;19908;-77
2021/11/04 06:56:40;;;;;;;;;;;21.80;38.20;;;;;;5091787;28;19991;-77
2021/11/04 06:59:09;;;;;;;;;;;22.20;37.60;;;;;;5075403;28;19927;-82
2021/11/04 07:01:35;;;;;;;;;;;22.60;37.30;;;;;;5074582;28;19908;-79
2021/11/04 07:04:07;;;;;;;;;;;22.90;37.10;;;;;;5091462;28;19920;-79
2021/11/04 07:06:34;;;;;;;;;;;23.10;36.90;;;;;;5091573;28;20234;-79
2021/11/04 07:09:01;;;;;;;;;;;23.30;36.90;;;;;;5075427;28;19919;-81
2021/11/04 07:11:32;;;;;;;;;;;23.40;36.90;;;;;;5091406;28;19912;-81
2021/11/04 07:13:57;;;;;;;;;;;23.50;37.20;;;;;;5074170;28;19916;-78
2021/11/04 07:16:24;;;;;;;;;;;23.60;37.50;;;;;;5091208;28;19908;-79
2021/11/04 07:18:50;;;;;;;;;;;23.60;37.90;;;;;;5073994;28;20011;-80
2021/11/04 07:21:32;;;;;;;;;;;23.70;37.90;;;;;;5074547;28;19958;-79
2021/11/04 07:23:57;;;;;;;;;;;23.70;38.00;;;;;;5091075;28;19913;-78
2021/11/04 07:26:24;;;;;;;;;;;23.80;38.00;;;;;;5110864;27;19930;-78
2021/11/04 07:28:50;;;;;;;;;;;23.80;38.50;;;;;;5079748;28;20321;-78
2021/11/04 07:31:16;;;;;;;;;;;23.80;38.70;;;;;;5093243;28;20018;-79
2021/11/04 07:33:45;;;;;;;;;;;23.90;39.10;;;;;;5097501;28;20317;-81
2021/11/04 07:36:16;;;;;;;;;;;24.10;39.30;;;;;;5089666;28;19965;-79
2021/11/04 07:38:45;;;;;;;;;;;24.20;40.20;;;;;;5098044;28;19927;-79
2021/11/04 07:41:11;;;;;;;;;;;24.40;40.70;;;;;;5097654;28;19919;-77
2021/11/04 07:43:39;;;;;;;;;;;24.40;41.00;;;;;;5097516;28;19912;-78
2021/11/04 07:46:04;;;;;;;;;;;24.50;41.20;;;;;;5097673;28;19908;-78
2021/11/04 07:48:35;;;;;;;;;;;24.60;41.30;;;;;;5080593;28;19908;-79
2021/11/04 07:51:00;;;;;;;;;;;24.70;41.30;;;;;;5081020;28;19990;-81
2021/11/04 07:53:26;;;;;;;;;;;24.80;41.40;;;;;;5097217;28;19943;-79
2021/11/04 07:55:54;;;;;;;;;;;24.80;41.50;;;;;;5100203;28;19908;-80
2021/11/04 07:58:22;;;;;;;;;;;24.90;41.30;;;;;;5101883;28;19912;-80
2021/11/04 08:00:50;;;;;;;;;;;25.00;41.40;;;;;;5101602;28;19919;-80
2021/11/04 08:03:16;;;;;;;;;;;25.00;41.10;;;;;;5101518;28;20264;-80
2021/11/04 08:05:44;;;;;;;;;;;25.10;41.00;;;;;;5101285;28;20376;-78
2021/11/04 08:08:12;;;;;;;;;;;25.10;40.80;;;;;;5101453;28;19907;-79
2021/11/04 08:10:40;;;;;;;;;;;25.10;40.50;;;;;;5101563;28;19985;-77
2021/11/04 08:13:13;;;;;;;;;;;25.20;40.50;;;;;;5101873;28;19931;-79
2021/11/04 08:15:41;;;;;;;;;;;25.20;40.30;;;;;;5102712;28;19965;-79
2021/11/04 08:18:09;;;;;;;;;;;25.30;40.30;;;;;;5119321;28;19915;-78
2021/11/04 08:20:34;;;;;;;;;;;25.30;40.10;;;;;;5101652;28;19962;-82
2021/11/04 08:23:02;;;;;;;;;;;25.30;40.10;;;;;;5084566;28;19943;-80
2021/11/04 08:25:28;;;;;;;;;;;25.30;40.00;;;;;;5101169;28;19915;-81
2021/11/04 08:27:58;;;;;;;;;;;25.40;39.80;;;;;;5084213;28;19908;-82
2021/11/04 08:30:29;;;;;;;;;;;25.40;39.80;;;;;;5101779;28;19950;-82
2021/11/04 08:32:57;;;;;;;;;;;25.40;39.70;;;;;;5101379;28;19943;-82
2021/11/04 08:35:22;;;;;;;;;;;25.40;39.50;;;;;;5101771;28;20052;-80
2021/11/04 08:37:50;;;;;;;;;;;25.40;39.50;;;;;;5083842;28;19978;-79
2021/11/04 08:40:16;;;;;;;;;;;25.40;39.50;;;;;;5100780;28;20010;-81
2021/11/04 08:42:41;;;;;;;;;;;25.50;39.50;;;;;;5078839;28;20012;-81
2021/11/04 08:45:09;;;;;;;;;;;25.50;39.60;;;;;;5080357;28;19919;-80
2021/11/04 08:47:35;;;;;;;;;;;25.50;39.40;;;;;;5063635;28;20025;-80
2021/11/04 08:50:03;;;;;;;;;;;25.50;39.60;;;;;;5064064;28;20316;-78
2021/11/04 08:52:29;;;;;;;;;;;25.50;39.60;;;;;;5068586;28;19908;-77
2021/11/04 08:54:55;;;;;;;;;;;25.40;39.70;;;;;;5083692;28;19908;-78
2021/11/04 08:57:21;;;;;;;;;;;25.40;39.80;;;;;;5105146;28;19908;-78
2021/11/04 08:59:49;;;;;;;;;;;25.40;40.20;;;;;;5104463;28;19926;-78
2021/11/04 09:02:18;;;;;;;;;;;25.40;41.40;;;;;;5086997;28;19908;-78
2021/11/04 09:04:44;;;;;;;;;;;25.40;41.90;;;;;;5083684;28;19919;-77
2021/11/04 09:07:10;;;;;;;;;;;25.40;42.30;;;;;;5082796;28;19919;-80
2021/11/04 09:09:35;;;;;;;;;;;25.40;42.70;;;;;;5100759;28;19908;-77
2021/11/04 09:12:03;;;;;;;;;;;25.40;43.00;;;;;;5100674;28;19907;-80
2021/11/04 09:14:29;;;;;;;;;;;25.40;43.20;;;;;;5083332;28;19988;-75
2021/11/04 09:16:55;;;;;;;;;;;25.40;43.50;;;;;;5101127;28;19907;-78
2021/11/04 09:19:20;;;;;;;;;;;25.40;43.70;;;;;;5088685;28;19912;-77
2021/11/04 09:21:46;;;;;;;;;;;25.40;43.60;;;;;;5089815;28;19908;-78
2021/11/04 09:24:12;;;;;;;;;;;25.40;43.70;;;;;;5103100;28;19951;-76
2021/11/04 09:26:37;;;;;;;;;;;25.40;43.90;;;;;;5088756;28;19907;-76
2021/11/04 09:29:05;;;;;;;;;;;25.40;43.90;;;;;;5095804;28;19918;-77
2021/11/04 09:31:34;;;;;;;;;;;25.40;44.00;;;;;;5111942;28;19915;-78
2021/11/04 09:34:00;;;;;;;;;;;25.40;43.90;;;;;;5121488;28;19908;-81
2021/11/04 09:36:29;;;;;;;;;;;25.40;43.90;;;;;;5083058;28;19908;-78
2021/11/04 09:38:55;;;;;;;;;;;25.40;44.00;;;;;;5109261;28;19978;-77
2021/11/04 09:41:21;;;;;;;;;;;25.40;43.90;;;;;;5079830;28;19908;-77
2021/11/04 09:43:47;;;;;;;;;;;25.40;44.10;;;;;;5097305;28;19912;-79
2021/11/04 09:46:12;;;;;;;;;;;25.40;44.10;;;;;;5079615;28;19909;-79
2021/11/04 09:48:38;;;;;;;;;;;25.40;44.20;;;;;;5063268;28;19919;-77
2021/11/04 09:51:06;;;;;;;;;;;25.40;44.10;;;;;;5062977;28;19981;-79
2021/11/04 09:53:36;;;;;;;;;;;25.40;44.30;;;;;;5063054;28;19944;-81
2021/11/04 09:56:02;;;;;;;;;;;25.50;44.30;;;;;;5080278;28;19915;-78
2021/11/04 09:58:31;;;;;;;;;;;25.50;44.30;;;;;;5079328;28;19912;-79
2021/11/04 10:01:00;;;;;;;;;;;25.50;44.30;;;;;;5096969;28;19912;-79
2021/11/04 10:03:33;;;;;;;;;;;25.40;44.20;;;;;;5079390;28;19912;-80
2021/11/04 10:05:59;;;;;;;;;;;25.50;44.20;;;;;;5079504;28;19999;-77
2021/11/04 10:08:35;;;;;;;;;;;25.50;44.20;;;;;;5062382;28;19951;-79
2021/11/04 10:11:05;;;;;;;;;;;25.50;44.20;;;;;;5078965;28;19951;-77
2021/11/04 10:13:31;;;;;;;;;;;25.50;44.20;;;;;;5062337;28;19969;-77
2021/11/04 10:15:59;;;;;;;;;;;25.50;44.20;;;;;;5062351;28;19965;-79
2021/11/04 10:18:24;;;;;;;;;;;25.50;44.10;;;;;;5078887;28;19919;-75
2021/11/04 10:20:57;;;;;;;;;;;25.60;44.10;;;;;;5078606;28;19980;-80
2021/11/04 10:23:25;;;;;;;;;;;25.50;44.60;;;;;;5062061;28;19978;-79
2021/11/04 10:25:52;;;;;;;;;;;25.50;44.70;;;;;;5061980;28;20015;-79
2021/11/04 10:28:22;;;;;;;;;;;25.60;44.00;;;;;;5079267;28;19978;-80
2021/11/04 10:30:48;;;;;;;;;;;25.60;44.10;;;;;;5078500;28;19908;-78
2021/11/04 10:33:26;;;;;;;;;;;25.50;44.00;;;;;;5061763;28;20045;-81
2021/11/04 10:36:09;;;;;;;;;;;25.50;44.10;;;;;;5096108;28;19908;-79
2021/11/04 10:38:44;;;;;;;;;;;25.50;44.10;;;;;;5105095;28;20352;-78
2021/11/04 10:41:13;;;;;;;;;;;25.50;44.10;;;;;;5083527;28;19908;-80
2021/11/04 10:43:39;;;;;;;;;;;25.50;43.90;;;;;;5098989;28;19907;-79
2021/11/04 10:46:05;;;;;;;;;;;25.60;44.00;;;;;;5098781;28;20397;-78
2021/11/04 10:48:34;;;;;;;;;;;25.50;43.80;;;;;;5098802;28;20359;-79
2021/11/04 10:50:59;;;;;;;;;;;25.50;43.90;;;;;;5082316;28;19907;-77
2021/11/04 10:53:25;;;;;;;;;;;25.60;44.00;;;;;;5116643;28;19918;-78
2021/11/04 10:55:54;;;;;;;;;;;25.60;44.50;;;;;;5081693;28;20317;-78
2021/11/04 10:58:26;;;;;;;;;;;25.60;43.80;;;;;;5081425;28;19977;-81
2021/11/04 11:00:51;;;;;;;;;;;25.60;44.30;;;;;;5098330;28;20045;-76
2021/11/04 11:03:17;;;;;;;;;;;25.60;43.70;;;;;;5081607;28;19992;-78
2021/11/04 11:05:43;;;;;;;;;;;25.60;43.70;;;;;;5081347;28;19994;-80
2021/11/04 11:08:12;;;;;;;;;;;25.60;43.60;;;;;;5081223;28;19908;-80
2021/11/04 11:10:39;;;;;;;;;;;25.60;43.70;;;;;;5081217;28;19908;-79
2021/11/04 11:13:04;;;;;;;;;;;25.60;43.70;;;;;;5081107;28;19969;-81
2021/11/04 11:15:33;;;;;;;;;;;25.60;43.70;;;;;;5081093;28;19915;-81
2021/11/04 11:18:03;;;;;;;;;;;25.60;43.80;;;;;;5081018;28;19951;-78
2021/11/04 11:20:31;;;;;;;;;;;25.60;43.80;;;;;;5080944;28;19919;-81
2021/11/04 11:22:57;;;;;;;;;;;25.60;43.70;;;;;;5081485;28;20320;-80
2021/11/04 11:25:22;;;;;;;;;;;25.60;43.80;;;;;;5081261;28;19969;-82
2021/11/04 11:27:51;;;;;;;;;;;25.60;43.70;;;;;;5097785;28;20339;-78
2021/11/04 11:30:17;;;;;;;;;;;25.60;43.70;;;;;;5097623;28;19938;-78
2021/11/04 11:32:47;;;;;;;;;;;25.60;43.70;;;;;;5115483;28;19908;-78
2021/11/04 11:35:25;;;;;;;;;;;25.60;43.60;;;;;;5081788;28;19925;-78
2021/11/04 11:37:53;;;;;;;;;;;25.60;43.60;;;;;;5115567;28;19915;-79
2021/11/04 11:40:21;;;;;;;;;;;25.60;43.60;;;;;;5095355;28;19920;-79
2021/11/04 11:42:53;;;;;;;;;;;25.70;43.70;;;;;;5077922;28;19912;-80
2021/11/04 11:45:18;;;;;;;;;;;25.70;43.70;;;;;;5077340;28;19912;-79
2021/11/04 11:47:46;;;;;;;;;;;25.70;43.60;;;;;;5060585;28;19908;-78
2021/11/04 11:50:20;;;;;;;;;;;25.70;43.70;;;;;;5077642;28;19908;-81
2021/11/04 11:52:46;;;;;;;;;;;25.70;43.80;;;;;;5094968;28;19912;-78
2021/11/04 11:55:15;;;;;;;;;;;25.70;44.10;;;;;;5077876;28;19908;-80
2021/11/04 11:57:59;;;;;;;;;;;25.70;44.30;;;;;;5077375;28;19916;-79
2021/11/04 12:00:57;;;;;;;;;;;25.70;44.20;;;;;;5094965;28;19908;-80
2021/11/04 12:03:32;;;;;;;;;;;25.70;44.40;;;;;;5044044;28;19908;-81
2021/11/04 12:06:21;;;;;;;;;;;25.70;44.40;;;;;;5094991;28;19908;-80
2021/11/04 12:08:50;;;;;;;;;;;25.70;44.40;;;;;;5068968;28;19912;-78
2021/11/04 12:11:34;;;;;;;;;;;25.80;44.50;;;;;;5060709;28;19908;-76
2021/11/04 12:14:18;;;;;;;;;;;25.80;44.50;;;;;;5077308;28;19908;-79
2021/11/04 12:17:08;;;;;;;;;;;25.80;44.80;;;;;;5077100;28;19919;-83
2021/11/04 12:19:34;;;;;;;;;;;25.80;44.70;;;;;;5077143;28;19982;-78
2021/11/04 12:21:59;;;;;;;;;;;25.80;44.80;;;;;;5077124;28;20411;-79
2021/11/04 12:24:25;;;;;;;;;;;25.80;44.90;;;;;;5060672;28;19958;-81
2021/11/04 12:26:53;;;;;;;;;;;25.90;44.90;;;;;;5060307;28;20279;-79
2021/11/04 12:29:27;;;;;;;;;;;25.90;44.90;;;;;;5077217;28;20568;-82
2021/11/04 12:31:55;;;;;;;;;;;25.90;45.00;;;;;;5077111;28;19908;-78
2021/11/04 12:34:29;;;;;;;;;;;25.90;45.00;;;;;;5077588;28;19908;-81
2021/11/04 12:36:55;;;;;;;;;;;25.90;45.00;;;;;;5060598;28;19908;-79
2021/11/04 12:39:21;;;;;;;;;;;25.80;45.00;;;;;;5059809;28;19946;-80
2021/11/04 12:41:49;;;;;;;;;;;25.80;45.00;;;;;;5096655;28;19922;-81
2021/11/04 12:44:22;;;;;;;;;;;25.80;45.00;;;;;;5080542;28;20341;-78
2021/11/04 12:46:48;;;;;;;;;;;25.80;45.00;;;;;;5098594;28;19969;-82
2021/11/04 12:49:17;;;;;;;;;;;25.80;45.00;;;;;;5080993;28;20449;-79
2021/11/04 12:51:46;;;;;;;;;;;25.80;45.00;;;;;;5064271;28;19982;-78
2021/11/04 12:54:12;;;;;;;;;;;25.80;45.00;;;;;;5064556;28;20219;-80
2021/11/04 12:56:42;;;;;;;;;;;25.70;44.90;;;;;;5098342;28;19916;-81
2021/11/04 12:59:08;;;;;;;;;;;25.70;45.00;;;;;;5063787;28;20352;-80
2021/11/04 13:01:52;;;;;;;;;;;25.80;45.00;;;;;;5080567;28;19908;-82
2021/11/04 13:04:27;;;;;;;;;;;26.00;44.70;;;;;;5080461;28;19927;-81
2021/11/04 13:06:56;;;;;;;;;;;26.10;44.50;;;;;;5064463;28;20202;-78
2021/11/04 13:09:22;;;;;;;;;;;26.20;44.20;;;;;;5080390;28;19912;-77
2021/11/04 13:12:06;;;;;;;;;;;26.20;43.90;;;;;;5063550;28;19922;-79
2021/11/04 13:14:51;;;;;;;;;;;26.30;43.70;;;;;;5098036;28;19982;-79
2021/11/04 13:17:16;;;;;;;;;;;26.30;43.60;;;;;;5063492;28;19912;-81
2021/11/04 13:20:04;;;;;;;;;;;26.30;43.20;;;;;;5063731;28;19927;-80
2021/11/04 13:22:30;;;;;;;;;;;26.40;43.20;;;;;;5063845;28;19916;-80
2021/11/04 13:24:56;;;;;;;;;;;26.50;43.00;;;;;;5080024;28;19912;-78
2021/11/04 13:27:25;;;;;;;;;;;26.50;42.90;;;;;;5079969;28;20337;-81
2021/11/04 13:29:51;;;;;;;;;;;26.50;42.70;;;;;;5063671;28;19908;-81
2021/11/04 13:32:17;;;;;;;;;;;26.60;42.70;;;;;;5062938;28;19923;-79
2021/11/04 13:34:43;;;;;;;;;;;26.60;42.50;;;;;;5063127;28;19907;-79
2021/11/04 13:37:15;;;;;;;;;;;26.70;42.60;;;;;;5063159;28;19944;-82
2021/11/04 13:39:41;;;;;;;;;;;26.70;42.50;;;;;;5080100;28;19920;-81
2021/11/04 13:42:07;;;;;;;;;;;26.70;42.40;;;;;;5063018;28;19923;-80
2021/11/04 13:44:33;;;;;;;;;;;26.70;42.30;;;;;;5063043;28;19973;-80
2021/11/04 13:46:59;;;;;;;;;;;26.80;42.30;;;;;;5063175;28;20442;-79
2021/11/04 13:49:25;;;;;;;;;;;26.90;42.30;;;;;;5079586;28;19908;-78
2021/11/04 13:51:57;;;;;;;;;;;26.90;42.20;;;;;;5079343;28;20226;-78
2021/11/04 13:54:25;;;;;;;;;;;26.90;42.10;;;;;;5078965;28;19908;-78
2021/11/04 13:57:03;;;;;;;;;;;26.90;42.00;;;;;;5079731;28;19908;-78
2021/11/04 13:59:31;;;;;;;;;;;26.90;42.00;;;;;;5096810;28;19923;-79
2021/11/04 14:02:00;;;;;;;;;;;26.90;42.00;;;;;;5079739;28;19962;-80
2021/11/04 14:04:25;;;;;;;;;;;26.90;41.90;;;;;;5079625;28;19939;-79
2021/11/04 14:06:56;;;;;;;;;;;27.00;42.00;;;;;;5079593;28;19908;-82
2021/11/04 14:09:32;;;;;;;;;;;26.90;41.80;;;;;;5072051;28;20260;-78
2021/11/04 14:12:06;;;;;;;;;;;26.90;41.80;;;;;;5086540;28;19912;-76
2021/11/04 14:14:41;;;;;;;;;;;27.00;41.80;;;;;;5062903;28;19915;-77
2021/11/04 14:17:07;;;;;;;;;;;27.00;41.80;;;;;;5062542;28;19966;-77
2021/11/04 14:19:32;;;;;;;;;;;27.00;41.70;;;;;;5078691;28;19924;-76
2021/11/04 14:22:00;;;;;;;;;;;27.00;41.70;;;;;;5079039;28;19908;-77